sensor_id;sensor_type;location;lat;lon;timestamp;temperature;humidity
25264;DHT22;13211;51.796;5.808;2022-08-01T00:03:36;20.20;99.90
25264;DHT22;13211;51.796;5.808;2022-08-01T00:06:06;20.20;99.90
25264;DHT22;13211;51.796;5.808;2022-08-01T00:08:35;20.20;99.90
25264;DHT22;13211;51.796;5.808;2022-08-01T00:11:03;20.20;99.90
25264;DHT22;13211;51.796;5.808;2022-08-01T00:13:30;20.10;99.90
25264;DHT22;13211;51.796;5.808;2022-08-01T00:15:58;20.10;99.90
25264;DHT22;13211;51.796;5.808;2022-08-01T00:18:29;20.10;99.90
25264;DHT22;13211;51.796;5.808;2022-08-01T00:20:56;20.10;99.90
25264;DHT22;13211;51.796;5.808;2022-08-01T00:23:24;20.10;99.90
25264;DHT22;13211;51.796;5.808;2022-08-01T00:25:52;20.10;99.90
25264;DHT22;13211;51.796;5.808;2022-08-01T00:28:20;20.10;99.90
25264;DHT22;13211;51.796;5.808;2022-08-01T00:30:47;20.00;99.90
25264;DHT22;13211;51.796;5.808;2022-08-01T00:33:16;20.00;99.90
25264;DHT22;13211;51.796;5.808;2022-08-01T00:35:43;19.90;99.90
25264;DHT22;13211;51.796;5.808;2022-08-01T00:38:11;20.00;99.90
25264;DHT22;13211;51.796;5.808;2022-08-01T00:40:39;20.00;99.90
25264;DHT22;13211;51.796;5.808;2022-08-01T00:43:06;20.00;99.90
25264;DHT22;13211;51.796;5.808;2022-08-01T00:45:34;19.90;99.90
25264;DHT22;13211;51.796;5.808;2022-08-01T00:48:02;19.90;99.90
25264;DHT22;13211;51.796;5.808;2022-08-01T00:50:29;19.90;99.90
25264;DHT22;13211;51.796;5.808;2022-08-01T00:52:58;19.90;99.90
25264;DHT22;13211;51.796;5.808;2022-08-01T00:55:31;19.90;99.90
25264;DHT22;13211;51.796;5.808;2022-08-01T00:57:59;19.90;99.90
25264;DHT22;13211;51.796;5.808;2022-08-01T01:00:34;19.90;99.90
25264;DHT22;13211;51.796;5.808;2022-08-01T01:03:22;19.90;99.90
25264;DHT22;13211;51.796;5.808;2022-08-01T01:12:19;19.90;99.90
25264;DHT22;13211;51.796;5.808;2022-08-01T01:15:10;19.90;99.90
25264;DHT22;13211;51.796;5.808;2022-08-01T01:20:33;19.80;99.90
25264;DHT22;13211;51.796;5.808;2022-08-01T01:23:14;19.80;99.90
25264;DHT22;13211;51.796;5.808;2022-08-01T01:29:02;19.80;99.90
25264;DHT22;13211;51.796;5.808;2022-08-01T01:34:22;19.80;99.90
25264;DHT22;13211;51.796;5.808;2022-08-01T01:36:54;19.80;99.90
25264;DHT22;13211;51.796;5.808;2022-08-01T01:39:25;19.70;99.90
25264;DHT22;13211;51.796;5.808;2022-08-01T01:41:58;19.70;99.90
25264;DHT22;13211;51.796;5.808;2022-08-01T01:44:27;19.80;99.90
25264;DHT22;13211;51.796;5.808;2022-08-01T01:46:56;19.70;99.90
25264;DHT22;13211;51.796;5.808;2022-08-01T01:49:27;19.70;99.90
25264;DHT22;13211;51.796;5.808;2022-08-01T01:51:57;19.70;99.90
25264;DHT22;13211;51.796;5.808;2022-08-01T01:54:37;19.70;99.90
25264;DHT22;13211;51.796;5.808;2022-08-01T01:57:07;19.70;99.90
25264;DHT22;13211;51.796;5.808;2022-08-01T01:59:38;19.70;99.90
25264;DHT22;13211;51.796;5.808;2022-08-01T02:02:07;19.60;99.90
25264;DHT22;13211;51.796;5.808;2022-08-01T02:04:37;19.60;99.90
25264;DHT22;13211;51.796;5.808;2022-08-01T02:07:12;19.70;99.90
25264;DHT22;13211;51.796;5.808;2022-08-01T02:09:43;19.70;99.90
25264;DHT22;13211;51.796;5.808;2022-08-01T02:12:14;19.70;99.90
25264;DHT22;13211;51.796;5.808;2022-08-01T02:14:46;19.70;99.90
25264;DHT22;13211;51.796;5.808;2022-08-01T02:17:17;19.70;99.90
25264;DHT22;13211;51.796;5.808;2022-08-01T02:19:46;19.60;99.90
25264;DHT22;13211;51.796;5.808;2022-08-01T02:22:37;19.60;99.90
25264;DHT22;13211;51.796;5.808;2022-08-01T02:25:15;19.60;99.90
25264;DHT22;13211;51.796;5.808;2022-08-01T02:28:07;19.60;99.90
25264;DHT22;13211;51.796;5.808;2022-08-01T02:30:39;19.60;99.90
25264;DHT22;13211;51.796;5.808;2022-08-01T02:33:12;19.60;99.90
25264;DHT22;13211;51.796;5.808;2022-08-01T02:35:48;19.60;99.90
25264;DHT22;13211;51.796;5.808;2022-08-01T02:38:42;19.60;99.90
25264;DHT22;13211;51.796;5.808;2022-08-01T02:41:18;19.60;99.90
25264;DHT22;13211;51.796;5.808;2022-08-01T02:43:49;19.60;99.90
25264;DHT22;13211;51.796;5.808;2022-08-01T02:46:28;19.60;99.90
25264;DHT22;13211;51.796;5.808;2022-08-01T02:48:58;19.60;99.90
25264;DHT22;13211;51.796;5.808;2022-08-01T02:51:31;19.50;99.90
25264;DHT22;13211;51.796;5.808;2022-08-01T02:54:02;19.50;99.90
25264;DHT22;13211;51.796;5.808;2022-08-01T02:56:50;19.50;99.90
25264;DHT22;13211;51.796;5.808;2022-08-01T02:59:22;19.40;99.90
25264;DHT22;13211;51.796;5.808;2022-08-01T03:01:57;19.30;99.90
25264;DHT22;13211;51.796;5.808;2022-08-01T03:04:30;19.30;99.90
25264;DHT22;13211;51.796;5.808;2022-08-01T03:07:02;19.30;99.90
25264;DHT22;13211;51.796;5.808;2022-08-01T03:09:35;19.30;99.90
25264;DHT22;13211;51.796;5.808;2022-08-01T03:12:07;19.20;99.90
25264;DHT22;13211;51.796;5.808;2022-08-01T03:14:38;19.20;99.90
25264;DHT22;13211;51.796;5.808;2022-08-01T03:17:08;19.10;99.90
25264;DHT22;13211;51.796;5.808;2022-08-01T03:19:37;19.10;99.90
25264;DHT22;13211;51.796;5.808;2022-08-01T03:22:08;19.00;99.90
25264;DHT22;13211;51.796;5.808;2022-08-01T03:24:39;18.90;99.90
25264;DHT22;13211;51.796;5.808;2022-08-01T03:27:08;18.90;99.90
25264;DHT22;13211;51.796;5.808;2022-08-01T03:29:39;18.90;99.90
25264;DHT22;13211;51.796;5.808;2022-08-01T03:32:09;18.80;99.90
25264;DHT22;13211;51.796;5.808;2022-08-01T03:34:38;18.80;99.90
25264;DHT22;13211;51.796;5.808;2022-08-01T03:37:34;18.80;99.90
25264;DHT22;13211;51.796;5.808;2022-08-01T03:40:34;18.80;99.90
25264;DHT22;13211;51.796;5.808;2022-08-01T03:43:06;18.70;99.90
25264;DHT22;13211;51.796;5.808;2022-08-01T03:45:39;18.70;99.90
25264;DHT22;13211;51.796;5.808;2022-08-01T03:48:19;18.70;99.90
25264;DHT22;13211;51.796;5.808;2022-08-01T03:50:51;18.70;99.90
25264;DHT22;13211;51.796;5.808;2022-08-01T03:53:22;18.60;99.90
25264;DHT22;13211;51.796;5.808;2022-08-01T03:55:53;18.60;99.90
25264;DHT22;13211;51.796;5.808;2022-08-01T03:58:23;18.70;99.90
25264;DHT22;13211;51.796;5.808;2022-08-01T04:00:51;18.70;99.90
25264;DHT22;13211;51.796;5.808;2022-08-01T04:03:20;18.70;99.90
25264;DHT22;13211;51.796;5.808;2022-08-01T04:05:47;18.70;99.90
25264;DHT22;13211;51.796;5.808;2022-08-01T04:08:15;18.70;99.90
25264;DHT22;13211;51.796;5.808;2022-08-01T04:10:43;18.70;99.90
25264;DHT22;13211;51.796;5.808;2022-08-01T04:13:12;18.70;99.90
25264;DHT22;13211;51.796;5.808;2022-08-01T04:15:41;18.70;99.90
25264;DHT22;13211;51.796;5.808;2022-08-01T04:18:09;18.70;99.90
25264;DHT22;13211;51.796;5.808;2022-08-01T04:20:40;18.70;99.90
25264;DHT22;13211;51.796;5.808;2022-08-01T04:23:09;18.70;99.90
25264;DHT22;13211;51.796;5.808;2022-08-01T04:25:41;18.80;99.90
25264;DHT22;13211;51.796;5.808;2022-08-01T04:28:15;18.80;99.90
25264;DHT22;13211;51.796;5.808;2022-08-01T04:30:45;18.80;99.90
25264;DHT22;13211;51.796;5.808;2022-08-01T04:33:16;18.80;99.90
25264;DHT22;13211;51.796;5.808;2022-08-01T04:35:45;18.90;99.90
25264;DHT22;13211;51.796;5.808;2022-08-01T04:38:33;18.80;99.90
25264;DHT22;13211;51.796;5.808;2022-08-01T04:41:05;18.80;99.90
25264;DHT22;13211;51.796;5.808;2022-08-01T04:43:37;18.80;99.90
25264;DHT22;13211;51.796;5.808;2022-08-01T04:46:09;18.80;99.90
25264;DHT22;13211;51.796;5.808;2022-08-01T04:48:38;18.90;99.90
25264;DHT22;13211;51.796;5.808;2022-08-01T04:51:17;18.90;99.90
25264;DHT22;13211;51.796;5.808;2022-08-01T04:53:45;18.90;99.90
25264;DHT22;13211;51.796;5.808;2022-08-01T04:56:15;19.00;99.90
25264;DHT22;13211;51.796;5.808;2022-08-01T04:58:43;19.00;99.90
25264;DHT22;13211;51.796;5.808;2022-08-01T05:01:12;19.10;99.90
25264;DHT22;13211;51.796;5.808;2022-08-01T05:03:41;19.10;99.90
25264;DHT22;13211;51.796;5.808;2022-08-01T05:06:11;19.00;99.90
25264;DHT22;13211;51.796;5.808;2022-08-01T05:08:40;19.00;99.90
25264;DHT22;13211;51.796;5.808;2022-08-01T05:11:19;19.00;99.90
25264;DHT22;13211;51.796;5.808;2022-08-01T05:13:51;19.00;99.90
25264;DHT22;13211;51.796;5.808;2022-08-01T05:16:19;19.00;99.90
25264;DHT22;13211;51.796;5.808;2022-08-01T05:18:46;19.00;99.90
25264;DHT22;13211;51.796;5.808;2022-08-01T05:21:17;19.10;99.90
25264;DHT22;13211;51.796;5.808;2022-08-01T05:23:48;19.10;99.90
25264;DHT22;13211;51.796;5.808;2022-08-01T05:26:23;19.10;99.90
25264;DHT22;13211;51.796;5.808;2022-08-01T05:28:52;19.10;99.90
25264;DHT22;13211;51.796;5.808;2022-08-01T05:31:20;19.10;99.90
25264;DHT22;13211;51.796;5.808;2022-08-01T05:33:48;19.10;99.90
25264;DHT22;13211;51.796;5.808;2022-08-01T05:36:16;19.10;99.90
25264;DHT22;13211;51.796;5.808;2022-08-01T05:38:44;19.20;99.90
25264;DHT22;13211;51.796;5.808;2022-08-01T05:41:13;19.20;99.90
25264;DHT22;13211;51.796;5.808;2022-08-01T05:43:41;19.30;99.90
25264;DHT22;13211;51.796;5.808;2022-08-01T05:46:11;19.30;99.90
25264;DHT22;13211;51.796;5.808;2022-08-01T05:48:39;19.40;99.90
25264;DHT22;13211;51.796;5.808;2022-08-01T05:51:07;19.40;99.90
25264;DHT22;13211;51.796;5.808;2022-08-01T05:53:35;19.40;99.90
25264;DHT22;13211;51.796;5.808;2022-08-01T05:56:03;19.50;99.90
25264;DHT22;13211;51.796;5.808;2022-08-01T05:58:32;19.50;99.90
25264;DHT22;13211;51.796;5.808;2022-08-01T06:01:00;19.50;99.90
25264;DHT22;13211;51.796;5.808;2022-08-01T06:03:31;19.50;99.90
25264;DHT22;13211;51.796;5.808;2022-08-01T06:06:00;19.60;99.90
25264;DHT22;13211;51.796;5.808;2022-08-01T06:08:28;19.60;99.90
25264;DHT22;13211;51.796;5.808;2022-08-01T06:10:57;19.60;99.90
25264;DHT22;13211;51.796;5.808;2022-08-01T06:13:28;19.70;99.90
25264;DHT22;13211;51.796;5.808;2022-08-01T06:15:57;19.70;99.90
25264;DHT22;13211;51.796;5.808;2022-08-01T06:18:26;19.70;99.90
25264;DHT22;13211;51.796;5.808;2022-08-01T06:20:56;19.80;99.90
25264;DHT22;13211;51.796;5.808;2022-08-01T06:23:24;19.90;99.90
25264;DHT22;13211;51.796;5.808;2022-08-01T06:25:59;19.90;99.90
25264;DHT22;13211;51.796;5.808;2022-08-01T06:28:27;19.90;99.90
25264;DHT22;13211;51.796;5.808;2022-08-01T06:30:55;19.90;99.90
25264;DHT22;13211;51.796;5.808;2022-08-01T06:33:26;20.00;99.90
25264;DHT22;13211;51.796;5.808;2022-08-01T06:35:54;20.10;99.90
25264;DHT22;13211;51.796;5.808;2022-08-01T06:38:22;20.10;99.90
25264;DHT22;13211;51.796;5.808;2022-08-01T06:40:52;20.10;99.90
25264;DHT22;13211;51.796;5.808;2022-08-01T06:43:19;20.20;99.90
25264;DHT22;13211;51.796;5.808;2022-08-01T06:45:47;20.20;99.90
25264;DHT22;13211;51.796;5.808;2022-08-01T06:48:16;20.20;99.90
25264;DHT22;13211;51.796;5.808;2022-08-01T06:50:44;20.20;99.90
25264;DHT22;13211;51.796;5.808;2022-08-01T06:53:13;20.20;99.90
25264;DHT22;13211;51.796;5.808;2022-08-01T06:55:41;20.20;99.90
25264;DHT22;13211;51.796;5.808;2022-08-01T06:58:13;20.30;99.90
25264;DHT22;13211;51.796;5.808;2022-08-01T07:00:43;20.30;99.90
25264;DHT22;13211;51.796;5.808;2022-08-01T07:03:12;20.30;99.90
25264;DHT22;13211;51.796;5.808;2022-08-01T07:05:42;20.40;99.90
25264;DHT22;13211;51.796;5.808;2022-08-01T07:08:11;20.30;99.90
25264;DHT22;13211;51.796;5.808;2022-08-01T07:10:40;20.40;99.90
25264;DHT22;13211;51.796;5.808;2022-08-01T07:13:09;20.40;99.90
25264;DHT22;13211;51.796;5.808;2022-08-01T07:15:41;20.40;99.90
25264;DHT22;13211;51.796;5.808;2022-08-01T07:18:12;20.50;99.90
25264;DHT22;13211;51.796;5.808;2022-08-01T07:20:46;20.50;99.90
25264;DHT22;13211;51.796;5.808;2022-08-01T07:23:19;20.50;99.90
25264;DHT22;13211;51.796;5.808;2022-08-01T07:25:59;20.60;99.90
25264;DHT22;13211;51.796;5.808;2022-08-01T07:28:29;20.60;99.90
25264;DHT22;13211;51.796;5.808;2022-08-01T07:30:57;20.70;99.90
25264;DHT22;13211;51.796;5.808;2022-08-01T07:33:27;20.70;99.90
25264;DHT22;13211;51.796;5.808;2022-08-01T07:36:18;20.70;99.90
25264;DHT22;13211;51.796;5.808;2022-08-01T07:38:47;20.70;99.90
25264;DHT22;13211;51.796;5.808;2022-08-01T07:41:17;20.70;99.90
25264;DHT22;13211;51.796;5.808;2022-08-01T07:43:45;20.70;99.90
25264;DHT22;13211;51.796;5.808;2022-08-01T07:46:24;20.70;99.90
25264;DHT22;13211;51.796;5.808;2022-08-01T07:48:52;20.80;99.90
25264;DHT22;13211;51.796;5.808;2022-08-01T07:51:20;20.80;99.90
25264;DHT22;13211;51.796;5.808;2022-08-01T07:53:48;20.90;99.90
25264;DHT22;13211;51.796;5.808;2022-08-01T07:56:16;20.90;99.90
25264;DHT22;13211;51.796;5.808;2022-08-01T07:58:45;21.00;99.90
25264;DHT22;13211;51.796;5.808;2022-08-01T08:01:16;21.10;99.90
25264;DHT22;13211;51.796;5.808;2022-08-01T08:03:46;21.20;99.90
25264;DHT22;13211;51.796;5.808;2022-08-01T08:06:15;21.40;99.90
25264;DHT22;13211;51.796;5.808;2022-08-01T08:08:43;21.50;99.90
25264;DHT22;13211;51.796;5.808;2022-08-01T08:11:11;21.60;99.90
25264;DHT22;13211;51.796;5.808;2022-08-01T08:13:39;21.70;99.90
25264;DHT22;13211;51.796;5.808;2022-08-01T08:16:07;21.80;99.90
25264;DHT22;13211;51.796;5.808;2022-08-01T08:18:35;22.00;99.90
25264;DHT22;13211;51.796;5.808;2022-08-01T08:21:04;22.10;99.90
25264;DHT22;13211;51.796;5.808;2022-08-01T08:23:35;22.20;99.90
25264;DHT22;13211;51.796;5.808;2022-08-01T08:26:21;22.20;99.90
25264;DHT22;13211;51.796;5.808;2022-08-01T08:28:50;22.40;99.90
25264;DHT22;13211;51.796;5.808;2022-08-01T08:31:18;22.50;99.90
25264;DHT22;13211;51.796;5.808;2022-08-01T08:34:10;22.50;99.90
25264;DHT22;13211;51.796;5.808;2022-08-01T08:36:38;22.50;99.90
25264;DHT22;13211;51.796;5.808;2022-08-01T08:39:14;22.50;99.90
25264;DHT22;13211;51.796;5.808;2022-08-01T08:41:47;22.40;99.90
25264;DHT22;13211;51.796;5.808;2022-08-01T08:44:16;22.50;99.90
25264;DHT22;13211;51.796;5.808;2022-08-01T08:47:03;22.50;99.90
25264;DHT22;13211;51.796;5.808;2022-08-01T08:49:36;22.50;99.90
25264;DHT22;13211;51.796;5.808;2022-08-01T08:52:10;22.60;99.90
25264;DHT22;13211;51.796;5.808;2022-08-01T08:54:48;22.60;99.90
25264;DHT22;13211;51.796;5.808;2022-08-01T08:57:19;22.70;99.90
25264;DHT22;13211;51.796;5.808;2022-08-01T08:59:47;22.80;99.90
25264;DHT22;13211;51.796;5.808;2022-08-01T09:02:15;23.00;99.90
25264;DHT22;13211;51.796;5.808;2022-08-01T09:04:46;23.10;99.90
25264;DHT22;13211;51.796;5.808;2022-08-01T09:07:17;23.40;99.90
25264;DHT22;13211;51.796;5.808;2022-08-01T09:09:46;23.60;99.90
25264;DHT22;13211;51.796;5.808;2022-08-01T09:12:18;23.90;99.90
25264;DHT22;13211;51.796;5.808;2022-08-01T09:14:48;24.10;99.90
25264;DHT22;13211;51.796;5.808;2022-08-01T09:17:17;24.30;99.90
25264;DHT22;13211;51.796;5.808;2022-08-01T09:19:51;24.40;99.90
25264;DHT22;13211;51.796;5.808;2022-08-01T09:22:23;24.50;99.90
25264;DHT22;13211;51.796;5.808;2022-08-01T09:25:08;24.70;99.90
25264;DHT22;13211;51.796;5.808;2022-08-01T09:27:39;24.90;99.90
25264;DHT22;13211;51.796;5.808;2022-08-01T09:30:16;25.10;99.90
25264;DHT22;13211;51.796;5.808;2022-08-01T09:33:00;25.20;99.90
25264;DHT22;13211;51.796;5.808;2022-08-01T09:35:44;25.30;99.90
25264;DHT22;13211;51.796;5.808;2022-08-01T09:38:22;25.40;99.90
25264;DHT22;13211;51.796;5.808;2022-08-01T09:43:23;25.50;99.90
25264;DHT22;13211;51.796;5.808;2022-08-01T09:45:53;25.60;99.90
25264;DHT22;13211;51.796;5.808;2022-08-01T09:48:24;25.70;99.90
25264;DHT22;13211;51.796;5.808;2022-08-01T09:50:58;25.70;99.90
25264;DHT22;13211;51.796;5.808;2022-08-01T09:53:49;25.70;99.90
25264;DHT22;13211;51.796;5.808;2022-08-01T09:56:21;25.70;99.90
25264;DHT22;13211;51.796;5.808;2022-08-01T09:58:51;25.60;99.90
25264;DHT22;13211;51.796;5.808;2022-08-01T10:01:26;25.50;99.90
25264;DHT22;13211;51.796;5.808;2022-08-01T10:04:11;25.30;99.90
25264;DHT22;13211;51.796;5.808;2022-08-01T10:06:44;25.20;99.90
25264;DHT22;13211;51.796;5.808;2022-08-01T10:09:13;24.90;99.90
25264;DHT22;13211;51.796;5.808;2022-08-01T10:11:45;24.80;99.90
25264;DHT22;13211;51.796;5.808;2022-08-01T10:14:13;24.70;99.90
25264;DHT22;13211;51.796;5.808;2022-08-01T10:16:48;24.70;99.90
25264;DHT22;13211;51.796;5.808;2022-08-01T10:19:23;24.60;99.90
25264;DHT22;13211;51.796;5.808;2022-08-01T10:21:56;24.40;99.90
25264;DHT22;13211;51.796;5.808;2022-08-01T10:24:28;24.20;99.90
25264;DHT22;13211;51.796;5.808;2022-08-01T10:27:04;24.10;99.90
25264;DHT22;13211;51.796;5.808;2022-08-01T10:29:56;24.00;99.90
25264;DHT22;13211;51.796;5.808;2022-08-01T10:32:34;24.00;99.90
25264;DHT22;13211;51.796;5.808;2022-08-01T10:35:07;23.90;99.90
25264;DHT22;13211;51.796;5.808;2022-08-01T10:37:42;23.90;99.90
25264;DHT22;13211;51.796;5.808;2022-08-01T10:40:19;23.80;99.90
25264;DHT22;13211;51.796;5.808;2022-08-01T10:42:57;23.60;99.90
25264;DHT22;13211;51.796;5.808;2022-08-01T10:45:25;23.50;99.90
25264;DHT22;13211;51.796;5.808;2022-08-01T10:48:02;23.40;99.90
25264;DHT22;13211;51.796;5.808;2022-08-01T10:50:41;23.20;99.90
25264;DHT22;13211;51.796;5.808;2022-08-01T10:53:20;23.10;99.90
25264;DHT22;13211;51.796;5.808;2022-08-01T10:58:37;23.30;99.90
25264;DHT22;13211;51.796;5.808;2022-08-01T11:01:26;23.20;99.90
25264;DHT22;13211;51.796;5.808;2022-08-01T11:12:08;23.50;99.90
25264;DHT22;13211;51.796;5.808;2022-08-01T11:20:13;24.10;99.90
25264;DHT22;13211;51.796;5.808;2022-08-01T11:28:25;24.50;99.90
25264;DHT22;13211;51.796;5.808;2022-08-01T11:38:49;24.40;99.90
25264;DHT22;13211;51.796;5.808;2022-08-01T11:41:22;24.50;99.90
25264;DHT22;13211;51.796;5.808;2022-08-01T11:44:11;24.60;99.90
25264;DHT22;13211;51.796;5.808;2022-08-01T11:46:58;24.90;99.90
25264;DHT22;13211;51.796;5.808;2022-08-01T11:52:30;25.20;99.90
25264;DHT22;13211;51.796;5.808;2022-08-01T11:57:36;25.50;99.90
25264;DHT22;13211;51.796;5.808;2022-08-01T12:00:14;25.70;99.90
25264;DHT22;13211;51.796;5.808;2022-08-01T12:02:46;25.70;99.90
25264;DHT22;13211;51.796;5.808;2022-08-01T12:05:17;25.70;99.90
25264;DHT22;13211;51.796;5.808;2022-08-01T12:07:53;25.70;99.90
25264;DHT22;13211;51.796;5.808;2022-08-01T12:10:25;25.60;99.90
25264;DHT22;13211;51.796;5.808;2022-08-01T12:13:00;25.60;99.90
25264;DHT22;13211;51.796;5.808;2022-08-01T12:15:35;25.50;99.90
25264;DHT22;13211;51.796;5.808;2022-08-01T12:18:07;25.60;99.90
25264;DHT22;13211;51.796;5.808;2022-08-01T12:20:37;25.60;99.90
25264;DHT22;13211;51.796;5.808;2022-08-01T12:23:17;25.70;99.90
25264;DHT22;13211;51.796;5.808;2022-08-01T12:25:51;25.90;99.90
25264;DHT22;13211;51.796;5.808;2022-08-01T12:28:20;26.40;99.90
25264;DHT22;13211;51.796;5.808;2022-08-01T12:30:49;26.70;99.90
25264;DHT22;13211;51.796;5.808;2022-08-01T12:33:18;27.00;99.90
25264;DHT22;13211;51.796;5.808;2022-08-01T12:35:47;27.10;99.90
25264;DHT22;13211;51.796;5.808;2022-08-01T12:38:19;27.10;99.90
25264;DHT22;13211;51.796;5.808;2022-08-01T12:40:47;27.00;99.90
25264;DHT22;13211;51.796;5.808;2022-08-01T12:43:21;26.80;99.90
25264;DHT22;13211;51.796;5.808;2022-08-01T12:45:58;26.70;99.90
25264;DHT22;13211;51.796;5.808;2022-08-01T12:48:30;26.70;99.90
25264;DHT22;13211;51.796;5.808;2022-08-01T12:50:59;26.80;99.90
25264;DHT22;13211;51.796;5.808;2022-08-01T12:53:28;26.90;99.90
25264;DHT22;13211;51.796;5.808;2022-08-01T12:56:08;27.00;99.90
25264;DHT22;13211;51.796;5.808;2022-08-01T12:58:41;27.10;99.90
25264;DHT22;13211;51.796;5.808;2022-08-01T13:01:10;26.90;99.90
25264;DHT22;13211;51.796;5.808;2022-08-01T13:03:41;26.80;99.90
25264;DHT22;13211;51.796;5.808;2022-08-01T13:06:29;26.90;99.90
25264;DHT22;13211;51.796;5.808;2022-08-01T13:09:09;26.80;99.90
25264;DHT22;13211;51.796;5.808;2022-08-01T13:11:41;26.90;99.90
25264;DHT22;13211;51.796;5.808;2022-08-01T13:14:30;26.90;99.90
25264;DHT22;13211;51.796;5.808;2022-08-01T13:16:58;26.70;99.90
25264;DHT22;13211;51.796;5.808;2022-08-01T13:19:46;26.60;99.90
25264;DHT22;13211;51.796;5.808;2022-08-01T13:22:35;26.60;99.90
25264;DHT22;13211;51.796;5.808;2022-08-01T13:25:14;26.60;99.90
25264;DHT22;13211;51.796;5.808;2022-08-01T13:28:20;26.70;99.90
25264;DHT22;13211;51.796;5.808;2022-08-01T13:31:04;26.80;99.90
25264;DHT22;13211;51.796;5.808;2022-08-01T13:33:43;26.90;99.90
25264;DHT22;13211;51.796;5.808;2022-08-01T13:36:26;26.80;99.90
25264;DHT22;13211;51.796;5.808;2022-08-01T13:38:59;26.50;99.90
25264;DHT22;13211;51.796;5.808;2022-08-01T13:41:48;26.30;99.90
25264;DHT22;13211;51.796;5.808;2022-08-01T13:44:15;26.30;99.90
25264;DHT22;13211;51.796;5.808;2022-08-01T13:46:45;26.50;99.90
25264;DHT22;13211;51.796;5.808;2022-08-01T13:49:17;26.70;99.90
25264;DHT22;13211;51.796;5.808;2022-08-01T13:51:46;26.90;99.90
25264;DHT22;13211;51.796;5.808;2022-08-01T13:54:16;27.00;99.90
25264;DHT22;13211;51.796;5.808;2022-08-01T13:56:53;27.40;99.90
25264;DHT22;13211;51.796;5.808;2022-08-01T13:59:26;27.90;99.90
25264;DHT22;13211;51.796;5.808;2022-08-01T14:01:54;27.70;99.90
25264;DHT22;13211;51.796;5.808;2022-08-01T14:04:23;27.30;99.90
25264;DHT22;13211;51.796;5.808;2022-08-01T14:06:55;27.20;99.90
25264;DHT22;13211;51.796;5.808;2022-08-01T14:09:36;27.10;99.90
25264;DHT22;13211;51.796;5.808;2022-08-01T14:12:30;26.90;99.90
25264;DHT22;13211;51.796;5.808;2022-08-01T14:15:03;26.80;99.90
25264;DHT22;13211;51.796;5.808;2022-08-01T14:17:35;27.20;99.90
25264;DHT22;13211;51.796;5.808;2022-08-01T14:20:04;27.60;99.90
25264;DHT22;13211;51.796;5.808;2022-08-01T14:22:35;27.90;99.90
25264;DHT22;13211;51.796;5.808;2022-08-01T14:25:05;28.10;99.90
25264;DHT22;13211;51.796;5.808;2022-08-01T14:27:35;28.40;99.90
25264;DHT22;13211;51.796;5.808;2022-08-01T14:30:04;28.70;99.90
25264;DHT22;13211;51.796;5.808;2022-08-01T14:32:34;28.70;99.90
25264;DHT22;13211;51.796;5.808;2022-08-01T14:35:06;28.80;99.90
25264;DHT22;13211;51.796;5.808;2022-08-01T14:37:40;28.60;99.90
25264;DHT22;13211;51.796;5.808;2022-08-01T14:40:09;28.30;99.90
25264;DHT22;13211;51.796;5.808;2022-08-01T14:42:50;28.00;99.90
25264;DHT22;13211;51.796;5.808;2022-08-01T14:45:23;27.70;99.90
25264;DHT22;13211;51.796;5.808;2022-08-01T14:47:56;27.40;99.90
25264;DHT22;13211;51.796;5.808;2022-08-01T14:50:26;27.40;99.90
25264;DHT22;13211;51.796;5.808;2022-08-01T14:52:57;27.30;99.90
25264;DHT22;13211;51.796;5.808;2022-08-01T14:55:27;27.10;99.90
25264;DHT22;13211;51.796;5.808;2022-08-01T14:57:55;26.80;99.90
25264;DHT22;13211;51.796;5.808;2022-08-01T15:00:26;26.60;99.90
25264;DHT22;13211;51.796;5.808;2022-08-01T15:02:58;26.50;99.90
25264;DHT22;13211;51.796;5.808;2022-08-01T15:05:27;26.40;99.90
25264;DHT22;13211;51.796;5.808;2022-08-01T15:07:57;26.30;99.90
25264;DHT22;13211;51.796;5.808;2022-08-01T15:10:26;26.20;99.90
25264;DHT22;13211;51.796;5.808;2022-08-01T15:12:55;26.20;99.90
25264;DHT22;13211;51.796;5.808;2022-08-01T15:15:25;26.20;99.90
25264;DHT22;13211;51.796;5.808;2022-08-01T15:17:54;26.00;99.90
25264;DHT22;13211;51.796;5.808;2022-08-01T15:20:22;25.80;99.90
25264;DHT22;13211;51.796;5.808;2022-08-01T15:22:50;25.60;99.90
25264;DHT22;13211;51.796;5.808;2022-08-01T15:25:21;25.30;99.90
25264;DHT22;13211;51.796;5.808;2022-08-01T15:27:50;24.90;99.90
25264;DHT22;13211;51.796;5.808;2022-08-01T15:30:18;24.70;99.90
25264;DHT22;13211;51.796;5.808;2022-08-01T15:32:53;24.60;99.90
25264;DHT22;13211;51.796;5.808;2022-08-01T15:35:20;24.60;99.90
25264;DHT22;13211;51.796;5.808;2022-08-01T15:37:48;24.60;99.90
25264;DHT22;13211;51.796;5.808;2022-08-01T15:40:16;24.50;99.90
25264;DHT22;13211;51.796;5.808;2022-08-01T15:42:45;24.50;99.90
25264;DHT22;13211;51.796;5.808;2022-08-01T15:45:18;24.50;99.90
25264;DHT22;13211;51.796;5.808;2022-08-01T15:48:07;24.50;99.90
25264;DHT22;13211;51.796;5.808;2022-08-01T15:50:40;24.40;99.90
25264;DHT22;13211;51.796;5.808;2022-08-01T15:53:07;24.40;99.90
25264;DHT22;13211;51.796;5.808;2022-08-01T15:55:36;24.30;99.90
25264;DHT22;13211;51.796;5.808;2022-08-01T15:58:06;24.20;99.90
25264;DHT22;13211;51.796;5.808;2022-08-01T16:00:38;24.00;99.90
25264;DHT22;13211;51.796;5.808;2022-08-01T16:03:07;23.90;99.90
25264;DHT22;13211;51.796;5.808;2022-08-01T16:05:36;23.80;99.90
25264;DHT22;13211;51.796;5.808;2022-08-01T16:08:12;23.70;99.90
25264;DHT22;13211;51.796;5.808;2022-08-01T16:10:47;23.60;99.90
25264;DHT22;13211;51.796;5.808;2022-08-01T16:13:16;23.40;99.90
25264;DHT22;13211;51.796;5.808;2022-08-01T16:15:43;23.40;99.90
25264;DHT22;13211;51.796;5.808;2022-08-01T16:18:12;23.40;99.90
25264;DHT22;13211;51.796;5.808;2022-08-01T16:20:43;23.40;99.90
25264;DHT22;13211;51.796;5.808;2022-08-01T16:23:14;23.40;99.90
25264;DHT22;13211;51.796;5.808;2022-08-01T16:25:43;23.30;99.90
25264;DHT22;13211;51.796;5.808;2022-08-01T16:28:12;23.20;99.90
25264;DHT22;13211;51.796;5.808;2022-08-01T16:30:47;23.10;99.90
25264;DHT22;13211;51.796;5.808;2022-08-01T16:33:56;23.10;99.90
25264;DHT22;13211;51.796;5.808;2022-08-01T16:36:32;22.90;99.90
25264;DHT22;13211;51.796;5.808;2022-08-01T16:39:00;22.80;99.90
25264;DHT22;13211;51.796;5.808;2022-08-01T16:41:39;22.70;99.90
25264;DHT22;13211;51.796;5.808;2022-08-01T16:44:12;22.50;99.90
25264;DHT22;13211;51.796;5.808;2022-08-01T16:47:02;22.40;99.90
25264;DHT22;13211;51.796;5.808;2022-08-01T16:49:33;22.30;99.90
25264;DHT22;13211;51.796;5.808;2022-08-01T16:52:01;22.30;99.90
25264;DHT22;13211;51.796;5.808;2022-08-01T16:54:32;22.20;99.90
25264;DHT22;13211;51.796;5.808;2022-08-01T16:57:00;22.10;99.90
25264;DHT22;13211;51.796;5.808;2022-08-01T16:59:36;22.10;99.90